sensor_id;sensor_type;location;lat;lon;timestamp;temperature;humidity
19862;DHT22;10093;48.148;8.542;2023-01-16T00:01:51;0.60;99.90
19862;DHT22;10093;48.148;8.542;2023-01-16T00:04:17;0.60;99.90
19862;DHT22;10093;48.148;8.542;2023-01-16T00:06:43;0.60;99.90
19862;DHT22;10093;48.148;8.542;2023-01-16T00:09:08;0.70;99.90
19862;DHT22;10093;48.148;8.542;2023-01-16T00:11:34;0.80;99.90
19862;DHT22;10093;48.148;8.542;2023-01-16T00:13:59;0.80;99.90
19862;DHT22;10093;48.148;8.542;2023-01-16T00:16:25;0.80;99.90
19862;DHT22;10093;48.148;8.542;2023-01-16T00:18:51;0.80;99.90
19862;DHT22;10093;48.148;8.542;2023-01-16T00:21:17;0.80;99.90
19862;DHT22;10093;48.148;8.542;2023-01-16T00:23:45;0.90;99.90
19862;DHT22;10093;48.148;8.542;2023-01-16T00:26:10;0.90;99.90
19862;DHT22;10093;48.148;8.542;2023-01-16T00:28:37;0.90;99.90
19862;DHT22;10093;48.148;8.542;2023-01-16T00:31:05;1.00;99.90
19862;DHT22;10093;48.148;8.542;2023-01-16T00:33:31;1.00;99.90
19862;DHT22;10093;48.148;8.542;2023-01-16T00:35:57;1.00;99.90
19862;DHT22;10093;48.148;8.542;2023-01-16T00:38:22;1.00;99.90
19862;DHT22;10093;48.148;8.542;2023-01-16T00:40:48;1.00;99.90
19862;DHT22;10093;48.148;8.542;2023-01-16T00:43:13;1.00;99.90
19862;DHT22;10093;48.148;8.542;2023-01-16T00:45:39;1.00;99.90
19862;DHT22;10093;48.148;8.542;2023-01-16T00:48:05;1.00;99.90
19862;DHT22;10093;48.148;8.542;2023-01-16T00:50:30;1.00;99.90
19862;DHT22;10093;48.148;8.542;2023-01-16T00:52:56;1.00;99.90
19862;DHT22;10093;48.148;8.542;2023-01-16T00:55:21;1.00;99.90
19862;DHT22;10093;48.148;8.542;2023-01-16T00:57:47;0.90;99.90
19862;DHT22;10093;48.148;8.542;2023-01-16T01:00:12;0.90;99.90
19862;DHT22;10093;48.148;8.542;2023-01-16T01:02:38;0.90;99.90
19862;DHT22;10093;48.148;8.542;2023-01-16T01:05:04;0.90;99.90
19862;DHT22;10093;48.148;8.542;2023-01-16T01:07:31;1.00;99.90
19862;DHT22;10093;48.148;8.542;2023-01-16T01:09:57;1.00;99.90
19862;DHT22;10093;48.148;8.542;2023-01-16T01:12:22;1.00;99.90
19862;DHT22;10093;48.148;8.542;2023-01-16T01:14:48;1.10;99.90
19862;DHT22;10093;48.148;8.542;2023-01-16T01:17:13;1.10;99.90
19862;DHT22;10093;48.148;8.542;2023-01-16T01:19:39;1.20;99.90
19862;DHT22;10093;48.148;8.542;2023-01-16T01:22:04;1.20;99.90
19862;DHT22;10093;48.148;8.542;2023-01-16T01:24:30;1.20;99.90
19862;DHT22;10093;48.148;8.542;2023-01-16T01:26:55;1.20;99.90
19862;DHT22;10093;48.148;8.542;2023-01-16T01:29:21;1.20;99.90
19862;DHT22;10093;48.148;8.542;2023-01-16T01:31:46;1.20;99.90
19862;DHT22;10093;48.148;8.542;2023-01-16T01:34:12;1.20;99.90
19862;DHT22;10093;48.148;8.542;2023-01-16T01:36:37;1.10;99.90
19862;DHT22;10093;48.148;8.542;2023-01-16T01:39:03;1.10;99.90
19862;DHT22;10093;48.148;8.542;2023-01-16T01:41:28;1.00;99.90
19862;DHT22;10093;48.148;8.542;2023-01-16T01:43:55;1.10;99.90
19862;DHT22;10093;48.148;8.542;2023-01-16T01:46:25;1.20;99.90
19862;DHT22;10093;48.148;8.542;2023-01-16T01:48:53;1.20;99.90
19862;DHT22;10093;48.148;8.542;2023-01-16T01:51:22;1.20;99.90
19862;DHT22;10093;48.148;8.542;2023-01-16T01:53:49;1.10;99.90
19862;DHT22;10093;48.148;8.542;2023-01-16T01:56:21;1.00;99.90
19862;DHT22;10093;48.148;8.542;2023-01-16T01:58:48;0.90;99.90
19862;DHT22;10093;48.148;8.542;2023-01-16T02:01:15;0.80;99.90
19862;DHT22;10093;48.148;8.542;2023-01-16T02:03:41;0.70;99.90
19862;DHT22;10093;48.148;8.542;2023-01-16T02:06:08;0.70;99.90
19862;DHT22;10093;48.148;8.542;2023-01-16T02:08:38;0.70;99.90
19862;DHT22;10093;48.148;8.542;2023-01-16T02:11:07;0.50;99.90
19862;DHT22;10093;48.148;8.542;2023-01-16T02:13:34;0.40;99.90
19862;DHT22;10093;48.148;8.542;2023-01-16T02:16:02;0.40;99.90
19862;DHT22;10093;48.148;8.542;2023-01-16T02:18:46;0.40;99.90
19862;DHT22;10093;48.148;8.542;2023-01-16T02:26:34;0.40;99.90
19862;DHT22;10093;48.148;8.542;2023-01-16T02:41:36;0.70;99.90
19862;DHT22;10093;48.148;8.542;2023-01-16T02:44:14;0.70;99.90
19862;DHT22;10093;48.148;8.542;2023-01-16T02:52:22;0.60;99.90
19862;DHT22;10093;48.148;8.542;2023-01-16T02:54:50;0.50;99.90
19862;DHT22;10093;48.148;8.542;2023-01-16T02:57:19;0.40;99.90
19862;DHT22;10093;48.148;8.542;2023-01-16T02:59:45;0.40;99.90
19862;DHT22;10093;48.148;8.542;2023-01-16T03:02:11;0.30;99.90
19862;DHT22;10093;48.148;8.542;2023-01-16T03:04:40;0.30;99.90
19862;DHT22;10093;48.148;8.542;2023-01-16T03:14:38;0.10;99.90
19862;DHT22;10093;48.148;8.542;2023-01-16T03:17:13;0.10;99.90
19862;DHT22;10093;48.148;8.542;2023-01-16T03:22:38;0.10;99.90
19862;DHT22;10093;48.148;8.542;2023-01-16T03:25:11;0.10;99.90
19862;DHT22;10093;48.148;8.542;2023-01-16T03:27:46;0.10;99.90
19862;DHT22;10093;48.148;8.542;2023-01-16T03:32:42;0.20;99.90
19862;DHT22;10093;48.148;8.542;2023-01-16T03:35:25;0.20;99.90
19862;DHT22;10093;48.148;8.542;2023-01-16T03:37:54;0.20;99.90
19862;DHT22;10093;48.148;8.542;2023-01-16T03:40:22;0.30;99.90
19862;DHT22;10093;48.148;8.542;2023-01-16T03:45:20;0.20;99.90
19862;DHT22;10093;48.148;8.542;2023-01-16T03:47:49;0.10;99.90
19862;DHT22;10093;48.148;8.542;2023-01-16T03:50:15;0.00;99.90
19862;DHT22;10093;48.148;8.542;2023-01-16T03:52:46;-0.20;99.90
19862;DHT22;10093;48.148;8.542;2023-01-16T03:55:18;-0.20;99.90
19862;DHT22;10093;48.148;8.542;2023-01-16T03:57:48;0.00;99.90
19862;DHT22;10093;48.148;8.542;2023-01-16T04:00:15;-0.20;99.90
19862;DHT22;10093;48.148;8.542;2023-01-16T04:02:42;-0.30;99.90
19862;DHT22;10093;48.148;8.542;2023-01-16T04:05:13;-0.20;99.90
19862;DHT22;10093;48.148;8.542;2023-01-16T04:07:42;-0.10;99.90
19862;DHT22;10093;48.148;8.542;2023-01-16T04:10:12;-0.20;99.90
19862;DHT22;10093;48.148;8.542;2023-01-16T04:12:45;-0.20;99.90
19862;DHT22;10093;48.148;8.542;2023-01-16T04:15:12;-0.30;99.90
19862;DHT22;10093;48.148;8.542;2023-01-16T04:17:39;-0.30;99.90
19862;DHT22;10093;48.148;8.542;2023-01-16T04:20:06;-0.40;99.90
19862;DHT22;10093;48.148;8.542;2023-01-16T04:22:32;-0.40;99.90
19862;DHT22;10093;48.148;8.542;2023-01-16T04:24:58;-0.40;99.90
19862;DHT22;10093;48.148;8.542;2023-01-16T04:27:24;-0.40;99.90
19862;DHT22;10093;48.148;8.542;2023-01-16T04:29:50;-0.30;99.90
19862;DHT22;10093;48.148;8.542;2023-01-16T04:32:15;-0.20;99.90
19862;DHT22;10093;48.148;8.542;2023-01-16T04:34:41;-0.10;99.90
19862;DHT22;10093;48.148;8.542;2023-01-16T04:37:07;-0.10;99.90
19862;DHT22;10093;48.148;8.542;2023-01-16T04:39:32;-0.10;99.90
19862;DHT22;10093;48.148;8.542;2023-01-16T04:41:58;-0.10;99.90
19862;DHT22;10093;48.148;8.542;2023-01-16T04:44:23;0.00;99.90
19862;DHT22;10093;48.148;8.542;2023-01-16T04:46:49;-0.10;99.90
19862;DHT22;10093;48.148;8.542;2023-01-16T04:49:15;-0.10;99.90
19862;DHT22;10093;48.148;8.542;2023-01-16T04:51:40;-0.20;99.90
19862;DHT22;10093;48.148;8.542;2023-01-16T04:54:06;-0.10;99.90
19862;DHT22;10093;48.148;8.542;2023-01-16T04:56:33;-0.20;99.90
19862;DHT22;10093;48.148;8.542;2023-01-16T04:58:58;-0.20;99.90
19862;DHT22;10093;48.148;8.542;2023-01-16T05:01:24;-0.20;99.90
19862;DHT22;10093;48.148;8.542;2023-01-16T05:03:50;-0.10;99.90
19862;DHT22;10093;48.148;8.542;2023-01-16T05:06:16;-0.20;99.90
19862;DHT22;10093;48.148;8.542;2023-01-16T05:08:41;-0.30;99.90
19862;DHT22;10093;48.148;8.542;2023-01-16T05:11:07;-0.30;99.90
19862;DHT22;10093;48.148;8.542;2023-01-16T05:13:32;-0.40;99.90
19862;DHT22;10093;48.148;8.542;2023-01-16T05:15:58;-0.30;99.90
19862;DHT22;10093;48.148;8.542;2023-01-16T05:18:24;-0.20;99.90
19862;DHT22;10093;48.148;8.542;2023-01-16T05:20:49;-0.20;99.90
19862;DHT22;10093;48.148;8.542;2023-01-16T05:23:15;-0.20;99.90
19862;DHT22;10093;48.148;8.542;2023-01-16T05:25:40;-0.20;99.90
19862;DHT22;10093;48.148;8.542;2023-01-16T05:28:06;-0.20;99.90
19862;DHT22;10093;48.148;8.542;2023-01-16T05:30:32;-0.20;99.90
19862;DHT22;10093;48.148;8.542;2023-01-16T05:32:58;-0.20;99.90
19862;DHT22;10093;48.148;8.542;2023-01-16T05:35:23;-0.20;99.90
19862;DHT22;10093;48.148;8.542;2023-01-16T05:37:49;-0.20;99.90
19862;DHT22;10093;48.148;8.542;2023-01-16T05:40:14;-0.20;99.90
19862;DHT22;10093;48.148;8.542;2023-01-16T05:42:43;-0.20;99.90
19862;DHT22;10093;48.148;8.542;2023-01-16T05:45:09;-0.20;99.90
19862;DHT22;10093;48.148;8.542;2023-01-16T05:47:34;-0.20;99.90
19862;DHT22;10093;48.148;8.542;2023-01-16T05:50:00;-0.20;99.90
19862;DHT22;10093;48.148;8.542;2023-01-16T05:52:26;-0.20;99.90
19862;DHT22;10093;48.148;8.542;2023-01-16T05:54:52;-0.30;99.90
19862;DHT22;10093;48.148;8.542;2023-01-16T05:57:17;-0.30;99.90
19862;DHT22;10093;48.148;8.542;2023-01-16T05:59:43;-0.30;99.90
19862;DHT22;10093;48.148;8.542;2023-01-16T06:02:11;-0.30;99.90
19862;DHT22;10093;48.148;8.542;2023-01-16T06:04:37;-0.20;99.90
19862;DHT22;10093;48.148;8.542;2023-01-16T06:07:02;-0.20;99.90
19862;DHT22;10093;48.148;8.542;2023-01-16T06:11:53;-0.40;99.90
19862;DHT22;10093;48.148;8.542;2023-01-16T06:14:19;-0.30;99.90
19862;DHT22;10093;48.148;8.542;2023-01-16T06:16:44;-0.30;99.90
19862;DHT22;10093;48.148;8.542;2023-01-16T06:19:10;-0.30;99.90
19862;DHT22;10093;48.148;8.542;2023-01-16T06:21:35;-0.30;99.90
19862;DHT22;10093;48.148;8.542;2023-01-16T06:24:01;-0.20;99.90
19862;DHT22;10093;48.148;8.542;2023-01-16T06:26:26;-0.10;99.90
19862;DHT22;10093;48.148;8.542;2023-01-16T06:28:52;-0.10;99.90
19862;DHT22;10093;48.148;8.542;2023-01-16T06:31:17;-0.10;99.90
19862;DHT22;10093;48.148;8.542;2023-01-16T06:33:43;-0.20;99.90
19862;DHT22;10093;48.148;8.542;2023-01-16T06:36:09;-0.30;99.90
19862;DHT22;10093;48.148;8.542;2023-01-16T06:38:34;-0.20;99.90
19862;DHT22;10093;48.148;8.542;2023-01-16T06:41:00;-0.20;99.90
19862;DHT22;10093;48.148;8.542;2023-01-16T06:43:25;-0.10;99.90
19862;DHT22;10093;48.148;8.542;2023-01-16T06:45:52;-0.10;99.90
19862;DHT22;10093;48.148;8.542;2023-01-16T06:48:17;-0.10;99.90
19862;DHT22;10093;48.148;8.542;2023-01-16T06:50:43;-0.20;99.90
19862;DHT22;10093;48.148;8.542;2023-01-16T06:53:09;-0.10;99.90
19862;DHT22;10093;48.148;8.542;2023-01-16T06:55:34;0.00;99.90
19862;DHT22;10093;48.148;8.542;2023-01-16T06:58:00;0.00;99.90
19862;DHT22;10093;48.148;8.542;2023-01-16T07:00:25;0.00;99.90
19862;DHT22;10093;48.148;8.542;2023-01-16T07:02:54;-0.10;99.90
19862;DHT22;10093;48.148;8.542;2023-01-16T07:05:21;-0.10;99.90
19862;DHT22;10093;48.148;8.542;2023-01-16T07:07:47;0.00;99.90
19862;DHT22;10093;48.148;8.542;2023-01-16T07:10:12;0.00;99.90
19862;DHT22;10093;48.148;8.542;2023-01-16T07:12:38;0.00;99.90
19862;DHT22;10093;48.148;8.542;2023-01-16T07:15:04;0.00;99.90
19862;DHT22;10093;48.148;8.542;2023-01-16T07:17:48;0.00;99.90
19862;DHT22;10093;48.148;8.542;2023-01-16T07:20:32;0.00;99.90
19862;DHT22;10093;48.148;8.542;2023-01-16T07:23:25;0.10;99.90
19862;DHT22;10093;48.148;8.542;2023-01-16T07:25:51;0.10;99.90
19862;DHT22;10093;48.148;8.542;2023-01-16T07:28:17;0.10;99.90
19862;DHT22;10093;48.148;8.542;2023-01-16T07:30:43;0.20;99.90
19862;DHT22;10093;48.148;8.542;2023-01-16T07:33:10;0.20;99.90
19862;DHT22;10093;48.148;8.542;2023-01-16T07:35:36;0.20;99.90
19862;DHT22;10093;48.148;8.542;2023-01-16T07:38:02;0.20;99.90
19862;DHT22;10093;48.148;8.542;2023-01-16T07:40:27;0.20;99.90
19862;DHT22;10093;48.148;8.542;2023-01-16T07:42:53;0.20;99.90
19862;DHT22;10093;48.148;8.542;2023-01-16T07:45:18;0.10;99.90
19862;DHT22;10093;48.148;8.542;2023-01-16T07:47:44;0.20;99.90
19862;DHT22;10093;48.148;8.542;2023-01-16T07:50:10;0.20;99.90
19862;DHT22;10093;48.148;8.542;2023-01-16T07:52:35;0.20;99.90
19862;DHT22;10093;48.148;8.542;2023-01-16T07:55:01;0.10;99.90
19862;DHT22;10093;48.148;8.542;2023-01-16T07:57:26;0.20;99.90
19862;DHT22;10093;48.148;8.542;2023-01-16T07:59:52;0.20;99.90
19862;DHT22;10093;48.148;8.542;2023-01-16T08:02:18;0.40;99.90
19862;DHT22;10093;48.148;8.542;2023-01-16T08:04:44;1.10;99.90
19862;DHT22;10093;48.148;8.542;2023-01-16T08:07:09;1.60;99.90
19862;DHT22;10093;48.148;8.542;2023-01-16T08:09:34;1.70;99.90
19862;DHT22;10093;48.148;8.542;2023-01-16T08:12:00;1.50;99.90
19862;DHT22;10093;48.148;8.542;2023-01-16T08:14:26;1.20;99.90
19862;DHT22;10093;48.148;8.542;2023-01-16T08:16:52;1.10;99.90
19862;DHT22;10093;48.148;8.542;2023-01-16T08:19:17;1.00;99.90
19862;DHT22;10093;48.148;8.542;2023-01-16T08:21:43;1.00;99.90
19862;DHT22;10093;48.148;8.542;2023-01-16T08:24:08;0.90;99.90
19862;DHT22;10093;48.148;8.542;2023-01-16T08:26:35;0.90;99.90
19862;DHT22;10093;48.148;8.542;2023-01-16T08:29:00;0.80;99.90
19862;DHT22;10093;48.148;8.542;2023-01-16T08:31:27;0.80;99.90
19862;DHT22;10093;48.148;8.542;2023-01-16T08:33:53;0.90;99.90
19862;DHT22;10093;48.148;8.542;2023-01-16T08:36:19;0.90;99.90
19862;DHT22;10093;48.148;8.542;2023-01-16T08:38:46;0.90;99.90
19862;DHT22;10093;48.148;8.542;2023-01-16T08:41:11;1.10;99.90
19862;DHT22;10093;48.148;8.542;2023-01-16T08:43:55;1.10;99.90
19862;DHT22;10093;48.148;8.542;2023-01-16T08:46:40;1.00;99.90
19862;DHT22;10093;48.148;8.542;2023-01-16T08:49:24;1.00;99.90
19862;DHT22;10093;48.148;8.542;2023-01-16T08:52:08;1.00;99.90
19862;DHT22;10093;48.148;8.542;2023-01-16T08:54:34;0.90;99.90
19862;DHT22;10093;48.148;8.542;2023-01-16T08:56:59;1.00;99.90
19862;DHT22;10093;48.148;8.542;2023-01-16T08:59:25;1.20;99.90
19862;DHT22;10093;48.148;8.542;2023-01-16T09:01:50;1.30;99.90
19862;DHT22;10093;48.148;8.542;2023-01-16T09:04:16;1.20;99.90
19862;DHT22;10093;48.148;8.542;2023-01-16T09:06:42;1.00;99.90
19862;DHT22;10093;48.148;8.542;2023-01-16T09:09:07;1.20;99.90
19862;DHT22;10093;48.148;8.542;2023-01-16T09:11:33;1.30;99.90
19862;DHT22;10093;48.148;8.542;2023-01-16T09:14:17;1.50;99.90
19862;DHT22;10093;48.148;8.542;2023-01-16T09:16:43;1.70;99.90
19862;DHT22;10093;48.148;8.542;2023-01-16T09:19:09;1.80;99.90
19862;DHT22;10093;48.148;8.542;2023-01-16T09:21:34;1.90;99.90
19862;DHT22;10093;48.148;8.542;2023-01-16T09:24:00;2.10;99.90
19862;DHT22;10093;48.148;8.542;2023-01-16T09:26:25;2.10;99.90
19862;DHT22;10093;48.148;8.542;2023-01-16T09:28:51;2.20;99.90
19862;DHT22;10093;48.148;8.542;2023-01-16T09:31:16;2.20;99.90
19862;DHT22;10093;48.148;8.542;2023-01-16T09:33:44;2.10;99.90
19862;DHT22;10093;48.148;8.542;2023-01-16T09:36:09;2.10;99.90
19862;DHT22;10093;48.148;8.542;2023-01-16T09:38:35;2.10;99.90
19862;DHT22;10093;48.148;8.542;2023-01-16T09:41:01;1.90;99.90
19862;DHT22;10093;48.148;8.542;2023-01-16T09:43:31;1.80;99.90
19862;DHT22;10093;48.148;8.542;2023-01-16T09:46:46;1.70;99.90
19862;DHT22;10093;48.148;8.542;2023-01-16T09:48:50;1.60;99.90
19862;DHT22;10093;48.148;8.542;2023-01-16T09:51:37;1.50;99.90
19862;DHT22;10093;48.148;8.542;2023-01-16T09:54:05;1.50;99.90
19862;DHT22;10093;48.148;8.542;2023-01-16T09:56:55;1.50;99.90
19862;DHT22;10093;48.148;8.542;2023-01-16T09:59:45;1.50;99.90
19862;DHT22;10093;48.148;8.542;2023-01-16T10:04:48;1.40;99.90
19862;DHT22;10093;48.148;8.542;2023-01-16T10:12:31;1.40;99.90
19862;DHT22;10093;48.148;8.542;2023-01-16T10:15:01;1.40;99.90
19862;DHT22;10093;48.148;8.542;2023-01-16T10:22:32;1.30;99.90
19862;DHT22;10093;48.148;8.542;2023-01-16T10:28:12;1.20;99.90
19862;DHT22;10093;48.148;8.542;2023-01-16T10:30:50;1.10;99.90
19862;DHT22;10093;48.148;8.542;2023-01-16T10:33:29;1.00;99.90
19862;DHT22;10093;48.148;8.542;2023-01-16T10:35:55;1.00;99.90
19862;DHT22;10093;48.148;8.542;2023-01-16T10:38:43;0.90;99.90
19862;DHT22;10093;48.148;8.542;2023-01-16T10:41:20;0.90;99.90
19862;DHT22;10093;48.148;8.542;2023-01-16T10:47:01;0.80;99.90
19862;DHT22;10093;48.148;8.542;2023-01-16T10:49:45;0.90;99.90
19862;DHT22;10093;48.148;8.542;2023-01-16T10:52:11;0.90;99.90
19862;DHT22;10093;48.148;8.542;2023-01-16T10:54:36;1.00;99.90
19862;DHT22;10093;48.148;8.542;2023-01-16T10:57:04;1.00;99.90
19862;DHT22;10093;48.148;8.542;2023-01-16T10:59:33;1.10;99.90
19862;DHT22;10093;48.148;8.542;2023-01-16T11:02:00;1.20;99.90
19862;DHT22;10093;48.148;8.542;2023-01-16T11:04:34;1.40;99.90
19862;DHT22;10093;48.148;8.542;2023-01-16T11:07:12;1.40;99.90
19862;DHT22;10093;48.148;8.542;2023-01-16T11:09:37;1.40;99.90
19862;DHT22;10093;48.148;8.542;2023-01-16T11:12:03;1.40;99.90
19862;DHT22;10093;48.148;8.542;2023-01-16T11:14:47;1.40;99.90
19862;DHT22;10093;48.148;8.542;2023-01-16T11:17:36;1.30;99.90
19862;DHT22;10093;48.148;8.542;2023-01-16T11:20:33;1.40;99.90
19862;DHT22;10093;48.148;8.542;2023-01-16T11:25:37;1.40;99.90
19862;DHT22;10093;48.148;8.542;2023-01-16T11:28:04;1.40;99.90
19862;DHT22;10093;48.148;8.542;2023-01-16T11:30:32;1.30;99.90
19862;DHT22;10093;48.148;8.542;2023-01-16T11:32:58;1.40;99.90
19862;DHT22;10093;48.148;8.542;2023-01-16T11:35:25;1.50;99.90
19862;DHT22;10093;48.148;8.542;2023-01-16T11:37:54;1.50;99.90
19862;DHT22;10093;48.148;8.542;2023-01-16T11:40:22;1.40;99.90
19862;DHT22;10093;48.148;8.542;2023-01-16T11:42:55;1.40;99.90
19862;DHT22;10093;48.148;8.542;2023-01-16T11:45:46;1.30;99.90
19862;DHT22;10093;48.148;8.542;2023-01-16T11:51:01;1.40;99.90
19862;DHT22;10093;48.148;8.542;2023-01-16T11:53:31;1.50;99.90
19862;DHT22;10093;48.148;8.542;2023-01-16T11:56:16;1.60;99.90
19862;DHT22;10093;48.148;8.542;2023-01-16T11:58:59;1.60;99.90
19862;DHT22;10093;48.148;8.542;2023-01-16T12:04:31;1.50;99.90
19862;DHT22;10093;48.148;8.542;2023-01-16T12:07:01;1.60;99.90
19862;DHT22;10093;48.148;8.542;2023-01-16T12:15:01;1.50;99.90
19862;DHT22;10093;48.148;8.542;2023-01-16T12:17:41;1.60;99.90
19862;DHT22;10093;48.148;8.542;2023-01-16T12:20:14;1.70;99.90
19862;DHT22;10093;48.148;8.542;2023-01-16T12:22:50;1.90;99.90
19862;DHT22;10093;48.148;8.542;2023-01-16T12:30:36;2.50;99.90
19862;DHT22;10093;48.148;8.542;2023-01-16T12:35:39;2.50;99.90
19862;DHT22;10093;48.148;8.542;2023-01-16T12:38:50;2.40;99.90
19862;DHT22;10093;48.148;8.542;2023-01-16T12:41:01;2.30;99.90
19862;DHT22;10093;48.148;8.542;2023-01-16T12:44:02;2.30;99.90
19862;DHT22;10093;48.148;8.542;2023-01-16T12:49:08;2.80;99.90
19862;DHT22;10093;48.148;8.542;2023-01-16T12:51:44;2.60;99.90
19862;DHT22;10093;48.148;8.542;2023-01-16T12:54:33;2.70;99.90
19862;DHT22;10093;48.148;8.542;2023-01-16T12:59:53;2.40;99.90
19862;DHT22;10093;48.148;8.542;2023-01-16T13:02:40;2.40;99.90
19862;DHT22;10093;48.148;8.542;2023-01-16T13:05:14;2.40;99.90
19862;DHT22;10093;48.148;8.542;2023-01-16T13:10:34;2.60;99.90
19862;DHT22;10093;48.148;8.542;2023-01-16T13:13:20;2.50;99.90
19862;DHT22;10093;48.148;8.542;2023-01-16T13:16:02;2.20;99.90
19862;DHT22;10093;48.148;8.542;2023-01-16T13:18:39;2.10;99.90
19862;DHT22;10093;48.148;8.542;2023-01-16T13:21:07;2.00;99.90
19862;DHT22;10093;48.148;8.542;2023-01-16T13:23:37;1.80;99.90
19862;DHT22;10093;48.148;8.542;2023-01-16T13:26:11;1.80;99.90
19862;DHT22;10093;48.148;8.542;2023-01-16T13:28:49;1.80;99.90
19862;DHT22;10093;48.148;8.542;2023-01-16T13:33:52;1.70;99.90
19862;DHT22;10093;48.148;8.542;2023-01-16T13:41:26;1.80;99.90
19862;DHT22;10093;48.148;8.542;2023-01-16T13:47:15;1.70;99.90
19862;DHT22;10093;48.148;8.542;2023-01-16T13:49:47;1.70;99.90
19862;DHT22;10093;48.148;8.542;2023-01-16T13:52:16;1.80;99.90
19862;DHT22;10093;48.148;8.542;2023-01-16T13:54:43;1.70;99.90
19862;DHT22;10093;48.148;8.542;2023-01-16T13:57:13;1.70;99.90
19862;DHT22;10093;48.148;8.542;2023-01-16T14:10:40;1.60;99.90
19862;DHT22;10093;48.148;8.542;2023-01-16T14:18:35;1.60;99.90
19862;DHT22;10093;48.148;8.542;2023-01-16T14:21:02;1.60;99.90
19862;DHT22;10093;48.148;8.542;2023-01-16T14:23:29;1.60;99.90
19862;DHT22;10093;48.148;8.542;2023-01-16T14:26:16;1.60;99.90
19862;DHT22;10093;48.148;8.542;2023-01-16T14:28:45;1.70;99.90
19862;DHT22;10093;48.148;8.542;2023-01-16T14:31:18;1.70;99.90
19862;DHT22;10093;48.148;8.542;2023-01-16T14:33:46;1.70;99.90
19862;DHT22;10093;48.148;8.542;2023-01-16T14:36:11;1.70;99.90
19862;DHT22;10093;48.148;8.542;2023-01-16T14:38:38;1.70;99.90
19862;DHT22;10093;48.148;8.542;2023-01-16T14:41:11;1.60;99.90
19862;DHT22;10093;48.148;8.542;2023-01-16T14:44:17;1.70;99.90
19862;DHT22;10093;48.148;8.542;2023-01-16T14:52:35;1.70;99.90
19862;DHT22;10093;48.148;8.542;2023-01-16T14:55:20;1.70;99.90
19862;DHT22;10093;48.148;8.542;2023-01-16T14:57:46;1.70;99.90
19862;DHT22;10093;48.148;8.542;2023-01-16T15:00:14;1.70;99.90
19862;DHT22;10093;48.148;8.542;2023-01-16T15:02:45;1.60;99.90
19862;DHT22;10093;48.148;8.542;2023-01-16T15:05:17;1.70;99.90
19862;DHT22;10093;48.148;8.542;2023-01-16T15:08:04;1.70;99.90
19862;DHT22;10093;48.148;8.542;2023-01-16T15:10:38;1.70;99.90
19862;DHT22;10093;48.148;8.542;2023-01-16T15:15:40;1.70;99.90
19862;DHT22;10093;48.148;8.542;2023-01-16T15:18:08;1.70;99.90
19862;DHT22;10093;48.148;8.542;2023-01-16T15:20:55;1.70;99.90
19862;DHT22;10093;48.148;8.542;2023-01-16T15:23:39;1.80;99.90
19862;DHT22;10093;48.148;8.542;2023-01-16T15:31:36;1.40;99.90
19862;DHT22;10093;48.148;8.542;2023-01-16T15:34:06;1.20;99.90
19862;DHT22;10093;48.148;8.542;2023-01-16T15:39:21;1.20;99.90
19862;DHT22;10093;48.148;8.542;2023-01-16T15:44:50;1.40;99.90
19862;DHT22;10093;48.148;8.542;2023-01-16T15:48:09;1.40;99.90
19862;DHT22;10093;48.148;8.542;2023-01-16T15:50:32;1.50;99.90
19862;DHT22;10093;48.148;8.542;2023-01-16T15:53:00;1.40;99.90
19862;DHT22;10093;48.148;8.542;2023-01-16T15:55:27;1.50;99.90
19862;DHT22;10093;48.148;8.542;2023-01-16T15:57:54;1.60;99.90
19862;DHT22;10093;48.148;8.542;2023-01-16T16:00:31;1.60;99.90
19862;DHT22;10093;48.148;8.542;2023-01-16T16:02:59;1.60;99.90
19862;DHT22;10093;48.148;8.542;2023-01-16T16:05:25;1.70;99.90
19862;DHT22;10093;48.148;8.542;2023-01-16T16:07:51;1.70;99.90
19862;DHT22;10093;48.148;8.542;2023-01-16T16:10:17;1.70;99.90
19862;DHT22;10093;48.148;8.542;2023-01-16T16:13:04;1.70;99.90
19862;DHT22;10093;48.148;8.542;2023-01-16T16:15:30;1.80;99.90
19862;DHT22;10093;48.148;8.542;2023-01-16T16:18:15;1.80;99.90
19862;DHT22;10093;48.148;8.542;2023-01-16T16:20:42;1.80;99.90
19862;DHT22;10093;48.148;8.542;2023-01-16T16:30:43;1.80;99.90
19862;DHT22;10093;48.148;8.542;2023-01-16T16:33:15;1.80;99.90
19862;DHT22;10093;48.148;8.542;2023-01-16T16:35:41;1.80;99.90
19862;DHT22;10093;48.148;8.542;2023-01-16T16:38:22;1.90;99.90
19862;DHT22;10093;48.148;8.542;2023-01-16T16:48:52;2.00;99.90
19862;DHT22;10093;48.148;8.542;2023-01-16T16:51:20;2.00;99.90
19862;DHT22;10093;48.148;8.542;2023-01-16T16:53:46;2.00;99.90
19862;DHT22;10093;48.148;8.542;2023-01-16T16:56:13;2.00;99.90
19862;DHT22;10093;48.148;8.542;2023-01-16T16:58:43;2.00;99.90
19862;DHT22;10093;48.148;8.542;2023-01-16T17:01:12;1.90;99.90
19862;DHT22;10093;48.148;8.542;2023-01-16T17:03:38;1.90;99.90
19862;DHT22;10093;48.148;8.542;2023-01-16T17:06:04;2.00;99.90
19862;DHT22;10093;48.148;8.542;2023-01-16T17:08:40;1.90;99.90
19862;DHT22;10093;48.148;8.542;2023-01-16T17:11:11;1.90;99.90
19862;DHT22;10093;48.148;8.542;2023-01-16T17:13:37;1.90;99.90
19862;DHT22;10093;48.148;8.542;2023-01-16T17:16:03;1.80;99.90
19862;DHT22;10093;48.148;8.542;2023-01-16T17:18:31;1.80;99.90
19862;DHT22;10093;48.148;8.542;2023-01-16T17:20:57;1.80;99.90
19862;DHT22;10093;48.148;8.542;2023-01-16T17:23:22;1.80;99.90
19862;DHT22;10093;48.148;8.542;2023-01-16T17:25:48;1.80;99.90
19862;DHT22;10093;48.148;8.542;2023-01-16T17:28:13;1.80;99.90
19862;DHT22;10093;48.148;8.542;2023-01-16T17:30:39;1.80;99.90
19862;DHT22;10093;48.148;8.542;2023-01-16T17:33:06;1.90;99.90
19862;DHT22;10093;48.148;8.542;2023-01-16T17:35:35;1.90;99.90
19862;DHT22;10093;48.148;8.542;2023-01-16T17:38:03;1.80;99.90
19862;DHT22;10093;48.148;8.542;2023-01-16T17:40:29;1.80;99.90
19862;DHT22;10093;48.148;8.542;2023-01-16T17:42:55;1.70;99.90
19862;DHT22;10093;48.148;8.542;2023-01-16T17:45:40;1.70;99.90
19862;DHT22;10093;48.148;8.542;2023-01-16T17:48:19;1.70;99.90
19862;DHT22;10093;48.148;8.542;2023-01-16T17:50:48;1.60;99.90
19862;DHT22;10093;48.148;8.542;2023-01-16T17:53:15;1.60;99.90
19862;DHT22;10093;48.148;8.542;2023-01-16T17:55:43;1.60;99.90
19862;DHT22;10093;48.148;8.542;2023-01-16T18:00:54;1.50;99.90
19862;DHT22;10093;48.148;8.542;2023-01-16T18:03:20;1.50;99.90
19862;DHT22;10093;48.148;8.542;2023-01-16T18:05:45;1.60;99.90
19862;DHT22;10093;48.148;8.542;2023-01-16T18:08:11;1.60;99.90
19862;DHT22;10093;48.148;8.542;2023-01-16T18:10:38;1.60;99.90
19862;DHT22;10093;48.148;8.542;2023-01-16T18:13:04;1.60;99.90
19862;DHT22;10093;48.148;8.542;2023-01-16T18:15:48;1.60;99.90
19862;DHT22;10093;48.148;8.542;2023-01-16T18:18:32;1.60;99.90
19862;DHT22;10093;48.148;8.542;2023-01-16T18:20:58;1.60;99.90
19862;DHT22;10093;48.148;8.542;2023-01-16T18:23:42;1.60;99.90
19862;DHT22;10093;48.148;8.542;2023-01-16T18:26:07;1.60;99.90
19862;DHT22;10093;48.148;8.542;2023-01-16T18:28:33;1.60;99.90
19862;DHT22;10093;48.148;8.542;2023-01-16T18:31:05;1.60;99.90
19862;DHT22;10093;48.148;8.542;2023-01-16T18:33:32;1.60;99.90